sensor_id;sensor_type;location;lat;lon;timestamp;P1;durP1;ratioP1;P2;durP2;ratioP2
56718;SDS011;42597;40.636;0.278;2023-04-25T00:01:45;3.55;;;1.95;;
56718;SDS011;42597;40.636;0.278;2023-04-25T00:04:12;2.92;;;1.30;;
56718;SDS011;42597;40.636;0.278;2023-04-25T00:06:38;2.38;;;1.20;;
56718;SDS011;42597;40.636;0.278;2023-04-25T00:09:05;4.43;;;1.92;;
56718;SDS011;42597;40.636;0.278;2023-04-25T00:11:36;5.53;;;2.30;;
56718;SDS011;42597;40.636;0.278;2023-04-25T00:14:03;4.38;;;1.85;;
56718;SDS011;42597;40.636;0.278;2023-04-25T00:16:30;2.33;;;1.63;;
56718;SDS011;42597;40.636;0.278;2023-04-25T00:21:24;3.45;;;2.00;;
56718;SDS011;42597;40.636;0.278;2023-04-25T00:23:51;2.00;;;1.23;;
56718;SDS011;42597;40.636;0.278;2023-04-25T00:26:17;4.90;;;1.42;;
56718;SDS011;42597;40.636;0.278;2023-04-25T00:28:43;3.05;;;1.48;;
56718;SDS011;42597;40.636;0.278;2023-04-25T00:31:09;2.47;;;1.50;;
56718;SDS011;42597;40.636;0.278;2023-04-25T00:33:35;3.72;;;1.83;;
56718;SDS011;42597;40.636;0.278;2023-04-25T00:36:01;2.58;;;1.33;;
56718;SDS011;42597;40.636;0.278;2023-04-25T00:38:26;5.65;;;2.10;;
56718;SDS011;42597;40.636;0.278;2023-04-25T00:40:52;4.47;;;1.85;;
56718;SDS011;42597;40.636;0.278;2023-04-25T00:43:18;9.60;;;1.55;;
56718;SDS011;42597;40.636;0.278;2023-04-25T00:45:43;2.45;;;1.20;;
56718;SDS011;42597;40.636;0.278;2023-04-25T00:48:13;2.10;;;1.50;;
56718;SDS011;42597;40.636;0.278;2023-04-25T00:50:40;4.22;;;1.85;;
56718;SDS011;42597;40.636;0.278;2023-04-25T00:53:06;5.15;;;1.73;;
56718;SDS011;42597;40.636;0.278;2023-04-25T00:55:35;2.85;;;1.58;;
56718;SDS011;42597;40.636;0.278;2023-04-25T00:58:01;3.80;;;1.70;;
56718;SDS011;42597;40.636;0.278;2023-04-25T01:00:27;4.47;;;1.48;;
56718;SDS011;42597;40.636;0.278;2023-04-25T01:02:53;3.38;;;1.42;;
56718;SDS011;42597;40.636;0.278;2023-04-25T01:05:19;3.30;;;1.77;;
56718;SDS011;42597;40.636;0.278;2023-04-25T01:07:44;3.30;;;2.15;;
56718;SDS011;42597;40.636;0.278;2023-04-25T01:10:10;2.38;;;1.40;;
56718;SDS011;42597;40.636;0.278;2023-04-25T01:12:36;2.67;;;1.58;;
56718;SDS011;42597;40.636;0.278;2023-04-25T01:15:02;5.05;;;1.35;;
56718;SDS011;42597;40.636;0.278;2023-04-25T01:17:28;3.03;;;1.70;;
56718;SDS011;42597;40.636;0.278;2023-04-25T01:19:54;2.45;;;1.65;;
56718;SDS011;42597;40.636;0.278;2023-04-25T01:22:19;2.92;;;1.75;;
56718;SDS011;42597;40.636;0.278;2023-04-25T01:24:46;6.43;;;1.55;;
56718;SDS011;42597;40.636;0.278;2023-04-25T01:27:12;2.70;;;1.63;;
56718;SDS011;42597;40.636;0.278;2023-04-25T01:29:37;4.60;;;1.33;;
56718;SDS011;42597;40.636;0.278;2023-04-25T01:32:04;2.45;;;1.25;;
56718;SDS011;42597;40.636;0.278;2023-04-25T01:34:31;2.90;;;1.52;;
56718;SDS011;42597;40.636;0.278;2023-04-25T01:36:57;3.42;;;1.92;;
56718;SDS011;42597;40.636;0.278;2023-04-25T01:39:25;5.63;;;1.70;;
56718;SDS011;42597;40.636;0.278;2023-04-25T01:41:50;3.38;;;1.42;;
56718;SDS011;42597;40.636;0.278;2023-04-25T01:44:16;2.15;;;1.40;;
56718;SDS011;42597;40.636;0.278;2023-04-25T01:46:42;3.45;;;1.60;;
56718;SDS011;42597;40.636;0.278;2023-04-25T01:49:07;2.75;;;1.70;;
56718;SDS011;42597;40.636;0.278;2023-04-25T01:51:33;4.40;;;1.52;;
56718;SDS011;42597;40.636;0.278;2023-04-25T01:53:59;2.92;;;1.83;;
56718;SDS011;42597;40.636;0.278;2023-04-25T01:56:29;2.25;;;1.20;;
56718;SDS011;42597;40.636;0.278;2023-04-25T01:58:56;2.83;;;1.60;;
56718;SDS011;42597;40.636;0.278;2023-04-25T02:01:22;2.10;;;1.23;;
56718;SDS011;42597;40.636;0.278;2023-04-25T02:03:48;2.20;;;1.38;;
56718;SDS011;42597;40.636;0.278;2023-04-25T02:06:13;3.08;;;1.70;;
56718;SDS011;42597;40.636;0.278;2023-04-25T02:08:39;2.45;;;1.38;;
56718;SDS011;42597;40.636;0.278;2023-04-25T02:11:05;3.08;;;1.60;;
56718;SDS011;42597;40.636;0.278;2023-04-25T02:13:30;4.45;;;1.77;;
56718;SDS011;42597;40.636;0.278;2023-04-25T02:15:56;2.33;;;1.35;;
56718;SDS011;42597;40.636;0.278;2023-04-25T02:18:22;2.00;;;1.20;;
56718;SDS011;42597;40.636;0.278;2023-04-25T02:20:48;3.03;;;1.48;;
56718;SDS011;42597;40.636;0.278;2023-04-25T02:23:14;2.97;;;1.52;;
56718;SDS011;42597;40.636;0.278;2023-04-25T02:25:40;4.10;;;1.70;;
56718;SDS011;42597;40.636;0.278;2023-04-25T02:28:06;6.53;;;1.63;;
56718;SDS011;42597;40.636;0.278;2023-04-25T02:30:32;2.75;;;1.50;;
56718;SDS011;42597;40.636;0.278;2023-04-25T02:32:58;3.80;;;1.45;;
56718;SDS011;42597;40.636;0.278;2023-04-25T02:35:24;2.72;;;1.48;;
56718;SDS011;42597;40.636;0.278;2023-04-25T02:37:50;2.58;;;1.58;;
56718;SDS011;42597;40.636;0.278;2023-04-25T02:40:16;3.00;;;1.67;;
56718;SDS011;42597;40.636;0.278;2023-04-25T02:42:41;4.63;;;1.65;;
56718;SDS011;42597;40.636;0.278;2023-04-25T02:45:07;2.63;;;1.50;;
56718;SDS011;42597;40.636;0.278;2023-04-25T02:47:34;3.97;;;1.90;;
56718;SDS011;42597;40.636;0.278;2023-04-25T02:50:00;3.65;;;1.60;;
56718;SDS011;42597;40.636;0.278;2023-04-25T02:52:25;2.00;;;1.20;;
56718;SDS011;42597;40.636;0.278;2023-04-25T02:54:51;3.33;;;1.52;;
56718;SDS011;42597;40.636;0.278;2023-04-25T02:57:17;2.65;;;1.55;;
56718;SDS011;42597;40.636;0.278;2023-04-25T02:59:43;3.05;;;1.63;;
56718;SDS011;42597;40.636;0.278;2023-04-25T03:02:09;1.48;;;1.02;;
56718;SDS011;42597;40.636;0.278;2023-04-25T03:04:35;2.67;;;1.67;;
56718;SDS011;42597;40.636;0.278;2023-04-25T03:07:00;3.28;;;1.75;;
56718;SDS011;42597;40.636;0.278;2023-04-25T03:09:26;3.47;;;1.75;;
56718;SDS011;42597;40.636;0.278;2023-04-25T03:11:52;3.78;;;1.58;;
56718;SDS011;42597;40.636;0.278;2023-04-25T03:14:18;4.82;;;1.73;;
56718;SDS011;42597;40.636;0.278;2023-04-25T03:16:43;7.88;;;1.45;;
56718;SDS011;42597;40.636;0.278;2023-04-25T03:19:10;3.25;;;1.80;;
56718;SDS011;42597;40.636;0.278;2023-04-25T03:21:35;2.08;;;1.35;;
56718;SDS011;42597;40.636;0.278;2023-04-25T03:24:02;5.63;;;1.63;;
56718;SDS011;42597;40.636;0.278;2023-04-25T03:26:29;8.05;;;1.42;;
56718;SDS011;42597;40.636;0.278;2023-04-25T03:28:55;3.58;;;1.55;;
56718;SDS011;42597;40.636;0.278;2023-04-25T03:31:21;2.78;;;1.63;;
56718;SDS011;42597;40.636;0.278;2023-04-25T03:33:47;3.97;;;1.83;;
56718;SDS011;42597;40.636;0.278;2023-04-25T03:36:13;3.40;;;1.55;;
56718;SDS011;42597;40.636;0.278;2023-04-25T03:38:39;5.35;;;1.70;;
56718;SDS011;42597;40.636;0.278;2023-04-25T03:41:06;3.35;;;1.52;;
56718;SDS011;42597;40.636;0.278;2023-04-25T03:43:32;2.25;;;1.35;;
56718;SDS011;42597;40.636;0.278;2023-04-25T03:45:58;2.50;;;1.20;;
56718;SDS011;42597;40.636;0.278;2023-04-25T03:48:25;3.05;;;1.52;;
56718;SDS011;42597;40.636;0.278;2023-04-25T03:50:51;2.53;;;1.40;;
56718;SDS011;42597;40.636;0.278;2023-04-25T03:53:17;2.47;;;1.27;;
56718;SDS011;42597;40.636;0.278;2023-04-25T03:55:43;3.63;;;1.73;;
56718;SDS011;42597;40.636;0.278;2023-04-25T03:58:09;1.27;;;1.08;;
56718;SDS011;42597;40.636;0.278;2023-04-25T04:00:35;3.10;;;1.70;;
56718;SDS011;42597;40.636;0.278;2023-04-25T04:03:01;3.70;;;1.70;;
56718;SDS011;42597;40.636;0.278;2023-04-25T04:05:27;3.67;;;1.73;;
56718;SDS011;42597;40.636;0.278;2023-04-25T04:07:53;3.83;;;1.70;;
56718;SDS011;42597;40.636;0.278;2023-04-25T04:10:20;3.25;;;1.83;;
56718;SDS011;42597;40.636;0.278;2023-04-25T04:12:46;2.47;;;1.45;;
56718;SDS011;42597;40.636;0.278;2023-04-25T04:15:11;2.92;;;1.60;;
56718;SDS011;42597;40.636;0.278;2023-04-25T04:17:37;3.20;;;1.63;;
56718;SDS011;42597;40.636;0.278;2023-04-25T04:20:03;3.00;;;1.38;;
56718;SDS011;42597;40.636;0.278;2023-04-25T04:22:30;2.35;;;1.33;;
56718;SDS011;42597;40.636;0.278;2023-04-25T04:24:56;2.28;;;1.20;;
56718;SDS011;42597;40.636;0.278;2023-04-25T04:27:22;2.42;;;1.40;;
56718;SDS011;42597;40.636;0.278;2023-04-25T04:29:48;2.28;;;1.45;;
56718;SDS011;42597;40.636;0.278;2023-04-25T04:32:15;3.92;;;1.90;;
56718;SDS011;42597;40.636;0.278;2023-04-25T04:34:41;3.30;;;1.58;;
56718;SDS011;42597;40.636;0.278;2023-04-25T04:37:06;2.60;;;1.55;;
56718;SDS011;42597;40.636;0.278;2023-04-25T04:39:33;1.60;;;1.13;;
56718;SDS011;42597;40.636;0.278;2023-04-25T04:41:59;2.45;;;1.48;;
56718;SDS011;42597;40.636;0.278;2023-04-25T04:44:27;3.95;;;1.70;;
56718;SDS011;42597;40.636;0.278;2023-04-25T04:46:53;3.17;;;1.67;;
56718;SDS011;42597;40.636;0.278;2023-04-25T04:49:20;2.63;;;1.20;;
56718;SDS011;42597;40.636;0.278;2023-04-25T04:51:46;2.45;;;1.10;;
56718;SDS011;42597;40.636;0.278;2023-04-25T04:54:12;2.20;;;1.48;;
56718;SDS011;42597;40.636;0.278;2023-04-25T04:56:38;1.38;;;1.00;;
56718;SDS011;42597;40.636;0.278;2023-04-25T04:59:04;3.00;;;1.42;;
56718;SDS011;42597;40.636;0.278;2023-04-25T05:01:30;2.20;;;1.42;;
56718;SDS011;42597;40.636;0.278;2023-04-25T05:03:56;2.78;;;1.65;;
56718;SDS011;42597;40.636;0.278;2023-04-25T05:06:25;2.88;;;1.45;;
56718;SDS011;42597;40.636;0.278;2023-04-25T05:11:19;2.53;;;1.67;;
56718;SDS011;42597;40.636;0.278;2023-04-25T05:13:46;3.30;;;1.45;;
56718;SDS011;42597;40.636;0.278;2023-04-25T05:16:13;4.05;;;1.60;;
56718;SDS011;42597;40.636;0.278;2023-04-25T05:18:39;3.28;;;1.52;;
56718;SDS011;42597;40.636;0.278;2023-04-25T05:21:05;3.40;;;1.60;;
56718;SDS011;42597;40.636;0.278;2023-04-25T05:23:31;3.35;;;1.60;;
56718;SDS011;42597;40.636;0.278;2023-04-25T05:25:58;3.38;;;1.40;;
56718;SDS011;42597;40.636;0.278;2023-04-25T05:28:25;3.08;;;1.60;;
56718;SDS011;42597;40.636;0.278;2023-04-25T05:30:50;3.97;;;1.88;;
56718;SDS011;42597;40.636;0.278;2023-04-25T05:33:16;2.38;;;1.42;;
56718;SDS011;42597;40.636;0.278;2023-04-25T05:35:42;2.58;;;1.40;;
56718;SDS011;42597;40.636;0.278;2023-04-25T05:38:08;3.45;;;1.83;;
56718;SDS011;42597;40.636;0.278;2023-04-25T05:40:34;2.22;;;1.48;;
56718;SDS011;42597;40.636;0.278;2023-04-25T05:42:59;5.55;;;2.15;;
56718;SDS011;42597;40.636;0.278;2023-04-25T05:45:25;5.10;;;2.47;;
56718;SDS011;42597;40.636;0.278;2023-04-25T05:47:51;3.22;;;1.65;;
56718;SDS011;42597;40.636;0.278;2023-04-25T05:50:17;5.03;;;2.78;;
56718;SDS011;42597;40.636;0.278;2023-04-25T05:52:43;13.82;;;9.10;;
56718;SDS011;42597;40.636;0.278;2023-04-25T05:55:09;11.20;;;6.07;;
56718;SDS011;42597;40.636;0.278;2023-04-25T05:57:35;10.90;;;7.43;;
56718;SDS011;42597;40.636;0.278;2023-04-25T06:00:01;3.30;;;1.95;;
56718;SDS011;42597;40.636;0.278;2023-04-25T06:02:26;4.28;;;1.73;;
56718;SDS011;42597;40.636;0.278;2023-04-25T06:04:52;2.75;;;1.55;;
56718;SDS011;42597;40.636;0.278;2023-04-25T06:07:18;7.53;;;2.47;;
56718;SDS011;42597;40.636;0.278;2023-04-25T06:09:45;10.18;;;2.47;;
56718;SDS011;42597;40.636;0.278;2023-04-25T06:12:11;6.30;;;3.00;;
56718;SDS011;42597;40.636;0.278;2023-04-25T06:14:37;6.13;;;2.50;;
56718;SDS011;42597;40.636;0.278;2023-04-25T06:17:03;5.55;;;2.42;;
56718;SDS011;42597;40.636;0.278;2023-04-25T06:19:33;4.93;;;2.08;;
56718;SDS011;42597;40.636;0.278;2023-04-25T06:22:02;5.32;;;1.98;;
56718;SDS011;42597;40.636;0.278;2023-04-25T06:24:28;5.45;;;2.70;;
56718;SDS011;42597;40.636;0.278;2023-04-25T06:26:54;5.35;;;2.63;;
56718;SDS011;42597;40.636;0.278;2023-04-25T06:29:20;6.60;;;2.60;;
56718;SDS011;42597;40.636;0.278;2023-04-25T06:31:46;5.82;;;2.47;;
56718;SDS011;42597;40.636;0.278;2023-04-25T06:34:12;9.00;;;2.83;;
56718;SDS011;42597;40.636;0.278;2023-04-25T06:36:37;6.43;;;2.97;;
56718;SDS011;42597;40.636;0.278;2023-04-25T06:39:03;6.32;;;2.78;;
56718;SDS011;42597;40.636;0.278;2023-04-25T06:41:29;4.22;;;2.08;;
56718;SDS011;42597;40.636;0.278;2023-04-25T06:43:55;9.13;;;3.05;;
56718;SDS011;42597;40.636;0.278;2023-04-25T06:46:21;7.97;;;3.38;;
56718;SDS011;42597;40.636;0.278;2023-04-25T06:48:47;6.60;;;3.35;;
56718;SDS011;42597;40.636;0.278;2023-04-25T06:51:12;6.47;;;2.85;;
56718;SDS011;42597;40.636;0.278;2023-04-25T06:53:41;4.75;;;2.63;;
56718;SDS011;42597;40.636;0.278;2023-04-25T06:56:06;5.78;;;2.78;;
56718;SDS011;42597;40.636;0.278;2023-04-25T06:58:32;4.50;;;2.60;;
56718;SDS011;42597;40.636;0.278;2023-04-25T07:00:58;4.72;;;2.70;;
56718;SDS011;42597;40.636;0.278;2023-04-25T07:03:23;5.22;;;2.42;;
56718;SDS011;42597;40.636;0.278;2023-04-25T07:05:50;7.15;;;3.10;;
56718;SDS011;42597;40.636;0.278;2023-04-25T07:08:16;7.82;;;2.95;;
56718;SDS011;42597;40.636;0.278;2023-04-25T07:10:42;6.00;;;3.38;;
56718;SDS011;42597;40.636;0.278;2023-04-25T07:13:08;7.03;;;3.13;;
56718;SDS011;42597;40.636;0.278;2023-04-25T07:15:33;5.93;;;2.95;;
56718;SDS011;42597;40.636;0.278;2023-04-25T07:17:59;4.85;;;2.35;;
56718;SDS011;42597;40.636;0.278;2023-04-25T07:20:25;10.73;;;3.22;;
56718;SDS011;42597;40.636;0.278;2023-04-25T07:22:52;4.85;;;2.80;;
56718;SDS011;42597;40.636;0.278;2023-04-25T07:25:18;4.68;;;2.63;;
56718;SDS011;42597;40.636;0.278;2023-04-25T07:27:44;6.28;;;2.90;;
56718;SDS011;42597;40.636;0.278;2023-04-25T07:30:10;8.02;;;2.65;;
56718;SDS011;42597;40.636;0.278;2023-04-25T07:32:37;3.78;;;2.05;;
56718;SDS011;42597;40.636;0.278;2023-04-25T07:35:03;4.70;;;1.52;;
56718;SDS011;42597;40.636;0.278;2023-04-25T07:37:30;4.25;;;2.30;;
56718;SDS011;42597;40.636;0.278;2023-04-25T07:39:55;5.47;;;2.63;;
56718;SDS011;42597;40.636;0.278;2023-04-25T07:42:21;9.00;;;1.88;;
56718;SDS011;42597;40.636;0.278;2023-04-25T07:44:47;3.75;;;1.67;;
56718;SDS011;42597;40.636;0.278;2023-04-25T07:47:12;3.97;;;2.42;;
56718;SDS011;42597;40.636;0.278;2023-04-25T07:49:38;4.45;;;2.40;;
56718;SDS011;42597;40.636;0.278;2023-04-25T07:52:05;5.43;;;2.53;;
56718;SDS011;42597;40.636;0.278;2023-04-25T07:54:31;4.40;;;2.67;;
56718;SDS011;42597;40.636;0.278;2023-04-25T07:56:57;7.15;;;2.70;;
56718;SDS011;42597;40.636;0.278;2023-04-25T07:59:23;5.43;;;2.22;;
56718;SDS011;42597;40.636;0.278;2023-04-25T08:01:49;3.63;;;2.15;;
56718;SDS011;42597;40.636;0.278;2023-04-25T08:04:15;5.32;;;2.47;;
56718;SDS011;42597;40.636;0.278;2023-04-25T08:06:41;3.50;;;1.65;;
56718;SDS011;42597;40.636;0.278;2023-04-25T08:09:08;5.65;;;2.45;;
56718;SDS011;42597;40.636;0.278;2023-04-25T08:11:37;4.93;;;2.17;;
56718;SDS011;42597;40.636;0.278;2023-04-25T08:14:03;4.45;;;2.35;;
56718;SDS011;42597;40.636;0.278;2023-04-25T08:16:29;5.40;;;2.45;;
56718;SDS011;42597;40.636;0.278;2023-04-25T08:18:55;3.90;;;2.10;;
56718;SDS011;42597;40.636;0.278;2023-04-25T08:21:20;5.75;;;2.40;;
56718;SDS011;42597;40.636;0.278;2023-04-25T08:23:46;5.00;;;3.22;;
56718;SDS011;42597;40.636;0.278;2023-04-25T08:26:12;7.15;;;3.25;;
56718;SDS011;42597;40.636;0.278;2023-04-25T08:28:37;4.55;;;2.25;;
56718;SDS011;42597;40.636;0.278;2023-04-25T08:31:03;6.35;;;2.13;;
56718;SDS011;42597;40.636;0.278;2023-04-25T08:33:29;2.40;;;1.45;;
56718;SDS011;42597;40.636;0.278;2023-04-25T08:35:55;3.85;;;2.00;;
56718;SDS011;42597;40.636;0.278;2023-04-25T08:38:21;4.93;;;1.65;;
56718;SDS011;42597;40.636;0.278;2023-04-25T08:40:49;4.45;;;1.73;;
56718;SDS011;42597;40.636;0.278;2023-04-25T08:43:19;3.03;;;1.52;;
56718;SDS011;42597;40.636;0.278;2023-04-25T08:45:46;4.38;;;2.22;;
56718;SDS011;42597;40.636;0.278;2023-04-25T08:48:12;2.75;;;1.60;;
56718;SDS011;42597;40.636;0.278;2023-04-25T08:51:01;2.80;;;1.70;;
56718;SDS011;42597;40.636;0.278;2023-04-25T08:53:27;3.63;;;1.70;;
56718;SDS011;42597;40.636;0.278;2023-04-25T08:55:55;4.75;;;2.22;;
56718;SDS011;42597;40.636;0.278;2023-04-25T08:58:22;4.47;;;2.00;;
56718;SDS011;42597;40.636;0.278;2023-04-25T09:00:49;3.75;;;1.05;;
56718;SDS011;42597;40.636;0.278;2023-04-25T09:03:17;3.25;;;1.38;;
56718;SDS011;42597;40.636;0.278;2023-04-25T09:05:43;2.30;;;1.13;;
56718;SDS011;42597;40.636;0.278;2023-04-25T09:08:09;5.57;;;1.83;;
56718;SDS011;42597;40.636;0.278;2023-04-25T09:10:35;1.88;;;1.15;;
56718;SDS011;42597;40.636;0.278;2023-04-25T09:15:53;3.33;;;1.77;;
56718;SDS011;42597;40.636;0.278;2023-04-25T09:18:33;2.15;;;1.33;;
56718;SDS011;42597;40.636;0.278;2023-04-25T09:21:07;2.70;;;1.60;;
56718;SDS011;42597;40.636;0.278;2023-04-25T09:26:10;6.45;;;1.98;;
56718;SDS011;42597;40.636;0.278;2023-04-25T09:28:39;2.83;;;1.58;;
56718;SDS011;42597;40.636;0.278;2023-04-25T09:31:05;3.00;;;1.75;;
56718;SDS011;42597;40.636;0.278;2023-04-25T09:33:31;2.25;;;1.42;;
56718;SDS011;42597;40.636;0.278;2023-04-25T09:38:32;4.47;;;1.70;;
56718;SDS011;42597;40.636;0.278;2023-04-25T09:41:06;3.17;;;1.58;;
56718;SDS011;42597;40.636;0.278;2023-04-25T09:43:32;3.47;;;1.55;;
56718;SDS011;42597;40.636;0.278;2023-04-25T09:45:58;3.35;;;1.45;;
56718;SDS011;42597;40.636;0.278;2023-04-25T09:48:26;2.30;;;1.33;;
56718;SDS011;42597;40.636;0.278;2023-04-25T09:53:38;3.88;;;1.73;;
56718;SDS011;42597;40.636;0.278;2023-04-25T09:56:17;2.60;;;1.60;;
56718;SDS011;42597;40.636;0.278;2023-04-25T09:58:45;4.13;;;1.40;;
56718;SDS011;42597;40.636;0.278;2023-04-25T10:01:12;2.78;;;1.17;;
56718;SDS011;42597;40.636;0.278;2023-04-25T10:03:38;3.58;;;1.58;;
56718;SDS011;42597;40.636;0.278;2023-04-25T10:06:09;2.72;;;1.20;;
56718;SDS011;42597;40.636;0.278;2023-04-25T10:08:39;3.38;;;1.80;;
56718;SDS011;42597;40.636;0.278;2023-04-25T10:11:06;1.02;;;0.80;;
56718;SDS011;42597;40.636;0.278;2023-04-25T10:13:34;1.63;;;1.05;;
56718;SDS011;42597;40.636;0.278;2023-04-25T10:16:01;2.78;;;1.17;;
56718;SDS011;42597;40.636;0.278;2023-04-25T10:18:29;2.00;;;0.90;;
56718;SDS011;42597;40.636;0.278;2023-04-25T10:21:00;2.35;;;1.52;;
56718;SDS011;42597;40.636;0.278;2023-04-25T10:23:29;4.65;;;1.60;;
56718;SDS011;42597;40.636;0.278;2023-04-25T10:25:55;3.60;;;1.17;;
56718;SDS011;42597;40.636;0.278;2023-04-25T10:28:22;4.47;;;1.80;;
56718;SDS011;42597;40.636;0.278;2023-04-25T10:30:58;3.45;;;1.75;;
56718;SDS011;42597;40.636;0.278;2023-04-25T10:33:34;1.75;;;0.98;;
56718;SDS011;42597;40.636;0.278;2023-04-25T10:36:11;2.35;;;1.00;;
56718;SDS011;42597;40.636;0.278;2023-04-25T10:38:38;2.45;;;1.10;;
56718;SDS011;42597;40.636;0.278;2023-04-25T10:41:05;2.08;;;1.30;;
56718;SDS011;42597;40.636;0.278;2023-04-25T10:51:17;2.08;;;0.93;;
56718;SDS011;42597;40.636;0.278;2023-04-25T10:53:45;2.65;;;1.05;;
56718;SDS011;42597;40.636;0.278;2023-04-25T10:56:19;2.83;;;0.70;;
56718;SDS011;42597;40.636;0.278;2023-04-25T10:58:48;5.03;;;1.60;;
56718;SDS011;42597;40.636;0.278;2023-04-25T11:01:15;2.03;;;1.27;;
56718;SDS011;42597;40.636;0.278;2023-04-25T11:03:45;3.00;;;0.98;;
56718;SDS011;42597;40.636;0.278;2023-04-25T11:06:19;2.97;;;1.33;;
56718;SDS011;42597;40.636;0.278;2023-04-25T11:08:54;2.70;;;1.15;;
56718;SDS011;42597;40.636;0.278;2023-04-25T11:11:20;3.75;;;1.73;;
56718;SDS011;42597;40.636;0.278;2023-04-25T11:13:49;3.58;;;1.70;;
56718;SDS011;42597;40.636;0.278;2023-04-25T11:16:16;5.22;;;1.63;;
56718;SDS011;42597;40.636;0.278;2023-04-25T11:18:42;4.15;;;1.50;;
56718;SDS011;42597;40.636;0.278;2023-04-25T11:23:37;2.40;;;1.30;;
56718;SDS011;42597;40.636;0.278;2023-04-25T11:26:03;2.90;;;1.20;;
56718;SDS011;42597;40.636;0.278;2023-04-25T11:28:29;2.28;;;1.48;;
56718;SDS011;42597;40.636;0.278;2023-04-25T11:30:55;11.25;;;3.60;;
56718;SDS011;42597;40.636;0.278;2023-04-25T11:33:24;8.82;;;3.25;;
56718;SDS011;42597;40.636;0.278;2023-04-25T11:35:55;7.13;;;3.17;;
56718;SDS011;42597;40.636;0.278;2023-04-25T11:38:24;7.25;;;2.90;;
56718;SDS011;42597;40.636;0.278;2023-04-25T11:40:51;6.95;;;3.03;;
56718;SDS011;42597;40.636;0.278;2023-04-25T11:43:19;8.07;;;4.18;;
56718;SDS011;42597;40.636;0.278;2023-04-25T11:45:46;7.88;;;3.78;;
56718;SDS011;42597;40.636;0.278;2023-04-25T11:48:16;6.88;;;2.97;;
56718;SDS011;42597;40.636;0.278;2023-04-25T11:50:43;7.13;;;3.58;;
56718;SDS011;42597;40.636;0.278;2023-04-25T11:53:09;8.90;;;4.07;;
56718;SDS011;42597;40.636;0.278;2023-04-25T11:55:35;9.00;;;3.22;;
56718;SDS011;42597;40.636;0.278;2023-04-25T11:58:02;5.72;;;3.05;;
56718;SDS011;42597;40.636;0.278;2023-04-25T12:00:29;7.15;;;2.58;;
56718;SDS011;42597;40.636;0.278;2023-04-25T12:02:56;9.70;;;2.70;;
56718;SDS011;42597;40.636;0.278;2023-04-25T12:05:27;6.43;;;3.00;;
56718;SDS011;42597;40.636;0.278;2023-04-25T12:07:55;5.78;;;2.85;;
56718;SDS011;42597;40.636;0.278;2023-04-25T12:10:21;5.28;;;2.88;;
56718;SDS011;42597;40.636;0.278;2023-04-25T12:12:49;4.37;;;2.20;;
56718;SDS011;42597;40.636;0.278;2023-04-25T12:15:16;6.85;;;3.10;;
56718;SDS011;42597;40.636;0.278;2023-04-25T12:17:48;5.80;;;3.00;;
56718;SDS011;42597;40.636;0.278;2023-04-25T12:20:17;6.80;;;3.17;;
56718;SDS011;42597;40.636;0.278;2023-04-25T12:22:45;6.10;;;2.95;;
56718;SDS011;42597;40.636;0.278;2023-04-25T12:25:13;7.07;;;3.33;;
56718;SDS011;42597;40.636;0.278;2023-04-25T12:33:24;8.48;;;3.55;;
56718;SDS011;42597;40.636;0.278;2023-04-25T12:35:50;6.78;;;3.13;;
56718;SDS011;42597;40.636;0.278;2023-04-25T12:40:54;5.57;;;2.47;;
56718;SDS011;42597;40.636;0.278;2023-04-25T12:43:20;5.45;;;3.13;;
56718;SDS011;42597;40.636;0.278;2023-04-25T12:45:53;4.85;;;2.40;;
56718;SDS011;42597;40.636;0.278;2023-04-25T12:48:20;7.18;;;3.33;;
56718;SDS011;42597;40.636;0.278;2023-04-25T12:50:47;7.35;;;3.13;;
56718;SDS011;42597;40.636;0.278;2023-04-25T12:53:20;5.15;;;2.85;;
56718;SDS011;42597;40.636;0.278;2023-04-25T12:55:47;5.82;;;3.60;;
56718;SDS011;42597;40.636;0.278;2023-04-25T12:58:13;4.88;;;2.13;;
56718;SDS011;42597;40.636;0.278;2023-04-25T13:00:40;5.95;;;2.80;;
56718;SDS011;42597;40.636;0.278;2023-04-25T13:03:06;4.43;;;1.75;;
56718;SDS011;42597;40.636;0.278;2023-04-25T13:05:31;4.70;;;2.50;;
56718;SDS011;42597;40.636;0.278;2023-04-25T13:07:57;4.43;;;2.25;;
56718;SDS011;42597;40.636;0.278;2023-04-25T13:10:24;5.93;;;2.20;;
56718;SDS011;42597;40.636;0.278;2023-04-25T13:12:50;4.25;;;2.03;;
56718;SDS011;42597;40.636;0.278;2023-04-25T13:15:15;5.20;;;2.03;;
56718;SDS011;42597;40.636;0.278;2023-04-25T13:17:41;5.35;;;2.92;;
56718;SDS011;42597;40.636;0.278;2023-04-25T13:20:08;5.82;;;2.70;;
56718;SDS011;42597;40.636;0.278;2023-04-25T13:22:37;6.20;;;2.45;;
56718;SDS011;42597;40.636;0.278;2023-04-25T13:25:05;4.45;;;2.25;;
56718;SDS011;42597;40.636;0.278;2023-04-25T13:27:32;5.53;;;2.30;;
56718;SDS011;42597;40.636;0.278;2023-04-25T13:29:59;3.95;;;2.00;;
56718;SDS011;42597;40.636;0.278;2023-04-25T13:32:33;4.10;;;2.15;;
56718;SDS011;42597;40.636;0.278;2023-04-25T13:37:27;9.30;;;2.55;;
56718;SDS011;42597;40.636;0.278;2023-04-25T13:39:54;5.93;;;2.47;;
56718;SDS011;42597;40.636;0.278;2023-04-25T13:42:21;4.57;;;1.88;;
56718;SDS011;42597;40.636;0.278;2023-04-25T13:44:47;3.80;;;2.17;;
56718;SDS011;42597;40.636;0.278;2023-04-25T13:47:13;5.47;;;2.10;;
56718;SDS011;42597;40.636;0.278;2023-04-25T13:49:39;4.25;;;1.70;;
56718;SDS011;42597;40.636;0.278;2023-04-25T13:52:05;3.33;;;2.10;;
56718;SDS011;42597;40.636;0.278;2023-04-25T13:54:31;7.20;;;2.50;;
56718;SDS011;42597;40.636;0.278;2023-04-25T13:56:56;3.25;;;2.00;;
56718;SDS011;42597;40.636;0.278;2023-04-25T13:59:24;4.55;;;1.92;;
56718;SDS011;42597;40.636;0.278;2023-04-25T14:01:53;2.80;;;1.80;;
56718;SDS011;42597;40.636;0.278;2023-04-25T14:04:19;5.07;;;1.95;;
56718;SDS011;42597;40.636;0.278;2023-04-25T14:06:45;6.70;;;2.08;;
56718;SDS011;42597;40.636;0.278;2023-04-25T14:09:11;6.03;;;2.20;;
56718;SDS011;42597;40.636;0.278;2023-04-25T14:11:38;5.70;;;2.00;;
56718;SDS011;42597;40.636;0.278;2023-04-25T14:14:04;6.53;;;2.25;;
56718;SDS011;42597;40.636;0.278;2023-04-25T14:16:30;7.18;;;2.35;;
56718;SDS011;42597;40.636;0.278;2023-04-25T14:18:59;3.45;;;1.80;;
56718;SDS011;42597;40.636;0.278;2023-04-25T14:21:26;7.07;;;2.05;;
56718;SDS011;42597;40.636;0.278;2023-04-25T14:23:53;5.03;;;2.25;;
56718;SDS011;42597;40.636;0.278;2023-04-25T14:26:19;5.80;;;1.92;;
56718;SDS011;42597;40.636;0.278;2023-04-25T14:28:45;3.83;;;1.70;;
56718;SDS011;42597;40.636;0.278;2023-04-25T14:31:11;8.55;;;2.22;;
56718;SDS011;42597;40.636;0.278;2023-04-25T14:33:36;4.80;;;2.00;;
56718;SDS011;42597;40.636;0.278;2023-04-25T14:36:04;5.18;;;2.42;;
56718;SDS011;42597;40.636;0.278;2023-04-25T14:38:30;3.92;;;1.80;;
56718;SDS011;42597;40.636;0.278;2023-04-25T14:40:56;5.55;;;2.45;;
56718;SDS011;42597;40.636;0.278;2023-04-25T14:43:22;4.82;;;2.00;;
56718;SDS011;42597;40.636;0.278;2023-04-25T14:45:47;4.75;;;2.33;;
56718;SDS011;42597;40.636;0.278;2023-04-25T14:48:13;5.18;;;2.00;;
56718;SDS011;42597;40.636;0.278;2023-04-25T14:50:40;7.57;;;2.10;;
56718;SDS011;42597;40.636;0.278;2023-04-25T14:53:05;6.43;;;2.40;;
56718;SDS011;42597;40.636;0.278;2023-04-25T14:55:31;8.02;;;3.25;;
56718;SDS011;42597;40.636;0.278;2023-04-25T14:57:57;3.80;;;2.20;;
56718;SDS011;42597;40.636;0.278;2023-04-25T15:00:23;7.07;;;2.45;;
56718;SDS011;42597;40.636;0.278;2023-04-25T15:02:50;5.00;;;2.28;;
56718;SDS011;42597;40.636;0.278;2023-04-25T15:05:16;4.00;;;1.85;;
56718;SDS011;42597;40.636;0.278;2023-04-25T15:07:43;3.45;;;1.60;;
56718;SDS011;42597;40.636;0.278;2023-04-25T15:10:09;6.22;;;1.85;;
56718;SDS011;42597;40.636;0.278;2023-04-25T15:12:41;6.82;;;2.22;;
56718;SDS011;42597;40.636;0.278;2023-04-25T15:15:08;5.53;;;2.45;;
56718;SDS011;42597;40.636;0.278;2023-04-25T15:17:38;4.03;;;1.80;;
56718;SDS011;42597;40.636;0.278;2023-04-25T15:20:06;6.38;;;1.95;;
56718;SDS011;42597;40.636;0.278;2023-04-25T15:22:34;3.42;;;2.00;;